createdAt,value
2022-09-28T00:00:35.165Z,8.40
2022-09-28T00:03:01.827Z,8.40
2022-09-28T00:05:28.525Z,10.20
2022-09-28T00:07:56.342Z,8.30
2022-09-28T00:10:23.122Z,8.40
2022-09-28T00:12:50.033Z,8.50
2022-09-28T00:15:16.889Z,8.40
2022-09-28T00:17:46.416Z,8.40
2022-09-28T00:20:13.146Z,8.50
2022-09-28T00:22:39.812Z,8.40
2022-09-28T00:25:06.876Z,8.50
2022-09-28T00:27:33.631Z,8.50
2022-09-28T00:30:00.290Z,8.50
2022-09-28T00:32:27.982Z,8.50
2022-09-28T00:34:55.076Z,8.60
2022-09-28T00:37:21.748Z,8.60
2022-09-28T00:39:48.644Z,8.60
2022-09-28T00:42:17.097Z,8.60
2022-09-28T00:44:48.077Z,8.70
2022-09-28T00:47:23.788Z,8.60
2022-09-28T00:50:05.775Z,8.60
2022-09-28T00:52:36.043Z,8.60
2022-09-28T00:55:05.699Z,8.60
2022-09-28T00:57:32.455Z,10.00
2022-09-28T00:59:59.913Z,8.60
2022-09-28T01:02:26.630Z,8.60
2022-09-28T01:04:53.583Z,8.60
2022-09-28T01:07:21.458Z,8.70
2022-09-28T01:09:48.610Z,8.70
2022-09-28T01:12:15.312Z,8.70
2022-09-28T01:14:42.484Z,8.70
2022-09-28T01:17:15.152Z,8.80
2022-09-28T01:19:56.694Z,8.70
2022-09-28T01:22:42.042Z,8.70
2022-09-28T01:25:11.765Z,8.70
2022-09-28T01:27:40.429Z,8.70
2022-09-28T01:30:08.202Z,8.80
2022-09-28T01:32:38.268Z,8.70
2022-09-28T01:35:10.014Z,8.80
2022-09-28T01:37:49.246Z,8.70
2022-09-28T01:40:16.503Z,10.40
2022-09-28T01:42:45.103Z,8.80
2022-09-28T01:45:16.405Z,10.50
2022-09-28T01:47:44.204Z,9.90
2022-09-28T01:50:16.237Z,10.90
2022-09-28T01:52:54.630Z,8.90
2022-09-28T01:55:27.101Z,8.80
2022-09-28T01:58:14.097Z,8.90
2022-09-28T02:00:43.689Z,8.80
2022-09-28T02:03:33.643Z,8.90
2022-09-28T02:06:02.947Z,8.80
2022-09-28T02:08:59.374Z,8.90
2022-09-28T02:11:26.057Z,8.90
2022-09-28T02:13:58.651Z,8.90
2022-09-28T02:16:31.321Z,8.90
2022-09-28T02:18:58.198Z,9.00
2022-09-28T02:21:31.487Z,11.30
2022-09-28T02:24:02.448Z,8.90
2022-09-28T02:26:44.745Z,9.00
2022-09-28T02:29:11.964Z,9.00
2022-09-28T02:31:38.715Z,10.00
2022-09-28T02:34:05.615Z,10.60
2022-09-28T02:36:33.198Z,9.10
2022-09-28T02:39:02.191Z,9.10
2022-09-28T02:41:34.849Z,9.00
2022-09-28T02:44:19.295Z,11.10
2022-09-28T02:47:12.237Z,9.00
2022-09-28T02:49:57.753Z,9.00
2022-09-28T02:52:42.838Z,9.00
2022-09-28T02:55:19.019Z,9.00
2022-09-28T02:57:57.803Z,9.00
2022-09-28T03:00:24.521Z,9.10
2022-09-28T03:02:54.094Z,9.10
2022-09-28T03:05:22.635Z,9.00
2022-09-28T03:07:49.203Z,9.00
2022-09-28T03:10:25.611Z,10.60
2022-09-28T03:12:53.099Z,9.00
2022-09-28T03:15:21.959Z,9.00
2022-09-28T03:17:49.294Z,9.00
2022-09-28T03:20:17.088Z,10.60
2022-09-28T03:22:52.033Z,9.00
2022-09-28T03:25:30.474Z,9.00
2022-09-28T03:27:57.012Z,10.40
2022-09-28T03:30:23.770Z,9.00
2022-09-28T03:32:57.178Z,10.10
2022-09-28T03:35:23.791Z,9.00
2022-09-28T03:37:53.804Z,11.10
2022-09-28T03:40:20.548Z,9.00
2022-09-28T03:42:47.410Z,8.90
2022-09-28T03:45:14.259Z,9.00
2022-09-28T03:47:45.106Z,8.90
2022-09-28T03:50:11.886Z,9.00
2022-09-28T03:52:38.442Z,9.00
2022-09-28T03:55:05.394Z,9.70
2022-09-28T03:57:32.102Z,8.90
2022-09-28T03:59:58.833Z,9.00
2022-09-28T04:02:25.533Z,8.90
2022-09-28T04:04:52.281Z,8.90
2022-09-28T04:07:19.049Z,8.90
2022-09-28T04:09:45.866Z,8.90
2022-09-28T04:12:12.445Z,8.90
2022-09-28T04:14:39.141Z,8.90
2022-09-28T04:17:06.639Z,8.90
2022-09-28T04:19:33.483Z,9.00
2022-09-28T04:22:01.515Z,8.90
2022-09-28T04:24:28.253Z,8.90
2022-09-28T04:27:14.881Z,8.90
2022-09-28T04:29:41.755Z,9.00
2022-09-28T04:32:08.619Z,9.00
2022-09-28T04:34:37.213Z,8.90
2022-09-28T04:37:05.442Z,9.00
2022-09-28T04:39:32.146Z,9.00
2022-09-28T04:41:58.798Z,8.90
2022-09-28T04:44:25.481Z,9.00
2022-09-28T04:46:52.117Z,9.00
2022-09-28T04:49:18.946Z,11.20
2022-09-28T04:51:45.748Z,9.00
2022-09-28T04:54:12.590Z,9.00
2022-09-28T04:56:39.264Z,9.00
2022-09-28T04:59:06.118Z,9.00
2022-09-28T05:01:32.865Z,9.00
2022-09-28T05:03:59.560Z,9.10
2022-09-28T05:06:28.600Z,9.10
2022-09-28T05:08:57.465Z,9.00
2022-09-28T05:11:24.278Z,9.00
2022-09-28T05:13:51.078Z,7.80
2022-09-28T05:16:17.881Z,9.10
2022-09-28T05:18:44.602Z,9.60
2022-09-28T05:21:12.726Z,9.00
2022-09-28T05:23:39.857Z,10.50
2022-09-28T05:26:06.826Z,8.90
2022-09-28T05:28:33.821Z,8.80
2022-09-28T05:31:01.174Z,8.70
2022-09-28T05:33:27.899Z,8.70
2022-09-28T05:35:59.043Z,8.70
2022-09-28T05:38:27.778Z,8.60
2022-09-28T05:40:54.545Z,8.60
2022-09-28T05:43:21.382Z,8.50
2022-09-28T05:45:51.627Z,8.50
2022-09-28T05:48:21.780Z,8.40
2022-09-28T05:50:52.476Z,8.40
2022-09-28T05:53:19.359Z,8.40
2022-09-28T05:55:46.105Z,8.30
2022-09-28T05:58:12.832Z,8.30
2022-09-28T06:00:39.673Z,8.40
2022-09-28T06:03:09.286Z,8.30
2022-09-28T06:05:36.762Z,8.40
2022-09-28T06:08:05.316Z,8.40
2022-09-28T06:10:32.855Z,8.30
2022-09-28T06:12:59.870Z,8.30
2022-09-28T06:15:27.798Z,9.20
2022-09-28T06:18:01.603Z,8.40
2022-09-28T06:20:30.195Z,8.40
2022-09-28T06:22:56.930Z,8.40
2022-09-28T06:25:24.076Z,8.80
2022-09-28T06:28:01.098Z,10.40
2022-09-28T06:30:28.858Z,8.50
2022-09-28T06:32:56.974Z,8.60
2022-09-28T06:35:25.384Z,8.70
2022-09-28T06:37:52.730Z,8.70
2022-09-28T06:40:20.327Z,8.80
2022-09-28T06:42:57.061Z,8.80
2022-09-28T06:45:25.337Z,8.90
2022-09-28T06:47:56.785Z,9.00
2022-09-28T06:50:24.274Z,9.10
2022-09-28T06:52:52.016Z,9.10
2022-09-28T06:55:18.857Z,9.20
2022-09-28T06:57:45.596Z,10.90
2022-09-28T07:00:12.658Z,10.50
2022-09-28T07:02:39.443Z,9.50
2022-09-28T07:05:08.137Z,9.60
2022-09-28T07:07:34.883Z,9.70
2022-09-28T07:10:01.577Z,9.80
2022-09-28T07:12:28.305Z,9.80
2022-09-28T07:14:57.343Z,9.80
2022-09-28T07:17:25.047Z,9.90
2022-09-28T07:19:52.776Z,10.00
2022-09-28T07:22:26.241Z,9.90
2022-09-28T07:25:01.557Z,9.90
2022-09-28T07:27:29.045Z,9.90
2022-09-28T07:29:55.922Z,9.80
2022-09-28T07:32:22.802Z,9.70
2022-09-28T07:34:50.254Z,11.70
2022-09-28T07:37:18.927Z,9.50
2022-09-28T07:40:04.940Z,9.50
2022-09-28T07:42:31.615Z,9.50
2022-09-28T07:44:58.629Z,9.50
2022-09-28T07:47:30.766Z,9.50
2022-09-28T07:49:59.167Z,9.30
2022-09-28T07:52:26.159Z,9.30
2022-09-28T07:54:53.478Z,10.40
2022-09-28T07:57:20.787Z,9.20
2022-09-28T07:59:47.914Z,9.20
2022-09-28T08:02:14.747Z,9.20
2022-09-28T08:04:41.559Z,9.30
2022-09-28T08:07:09.427Z,9.30
2022-09-28T08:09:36.190Z,9.40
2022-09-28T08:12:04.262Z,9.50
2022-09-28T08:14:34.329Z,9.60
2022-09-28T08:17:01.366Z,9.60
2022-09-28T08:19:48.361Z,11.30
2022-09-28T08:22:15.812Z,11.40
2022-09-28T08:24:42.556Z,10.00
2022-09-28T08:27:10.418Z,10.00
2022-09-28T08:29:37.143Z,10.00
2022-09-28T08:32:04.679Z,11.80
2022-09-28T08:34:31.420Z,13.00
2022-09-28T08:36:58.444Z,10.40
2022-09-28T08:39:25.222Z,13.00
2022-09-28T08:42:06.222Z,12.00
2022-09-28T08:44:39.789Z,10.40
2022-09-28T08:47:08.068Z,10.60
2022-09-28T08:49:37.001Z,13.20
2022-09-28T08:52:09.675Z,10.70
2022-09-28T08:54:48.974Z,12.90
2022-09-28T08:57:17.950Z,10.80
2022-09-28T08:59:57.815Z,10.80
2022-09-28T09:02:31.465Z,10.90
2022-09-28T09:04:58.576Z,11.00
2022-09-28T09:07:25.241Z,12.40
2022-09-28T09:09:51.946Z,11.10
2022-09-28T09:12:18.648Z,11.00
2022-09-28T09:14:45.326Z,13.40
2022-09-28T09:17:31.050Z,12.40
2022-09-28T09:20:07.127Z,10.90
2022-09-28T09:22:41.292Z,10.80
2022-09-28T09:25:21.436Z,10.80
2022-09-28T09:27:57.821Z,10.80
2022-09-28T09:30:29.296Z,11.10
2022-09-28T09:33:05.142Z,11.10
2022-09-28T09:35:42.818Z,11.20
2022-09-28T09:38:19.363Z,11.20
2022-09-28T09:41:06.727Z,11.30
2022-09-28T09:43:36.857Z,11.30
2022-09-28T09:46:10.341Z,11.40
2022-09-28T09:48:45.199Z,11.50
2022-09-28T09:51:23.198Z,11.50
2022-09-28T09:53:57.348Z,11.60
2022-09-28T09:56:45.207Z,11.70
2022-09-28T09:59:14.693Z,11.70
2022-09-28T10:01:41.764Z,11.70
2022-09-28T10:04:15.841Z,11.60
2022-09-28T10:06:43.647Z,13.30
2022-09-28T10:09:13.288Z,12.60
2022-09-28T10:11:42.577Z,13.20
2022-09-28T10:14:13.927Z,14.10
2022-09-28T10:16:40.619Z,14.00
2022-09-28T10:19:09.511Z,11.00
2022-09-28T10:21:40.582Z,11.60
2022-09-28T10:24:39.699Z,12.90
2022-09-28T10:27:08.562Z,11.60
2022-09-28T10:29:55.458Z,13.30
2022-09-28T10:32:26.561Z,13.20
2022-09-28T10:34:54.932Z,11.70
2022-09-28T10:37:21.566Z,12.10
2022-09-28T10:39:55.374Z,13.20
2022-09-28T10:42:32.157Z,12.00
2022-09-28T10:45:17.654Z,13.30
2022-09-28T10:47:44.384Z,12.20
2022-09-28T10:50:19.625Z,14.40
2022-09-28T10:52:46.688Z,12.00
2022-09-28T10:55:27.707Z,13.10
2022-09-28T10:57:54.669Z,12.10
2022-09-28T11:00:32.332Z,12.30
2022-09-28T11:02:59.516Z,12.10
2022-09-28T11:05:30.059Z,14.50
2022-09-28T11:07:58.021Z,13.40
2022-09-28T11:10:26.428Z,13.80
2022-09-28T11:12:53.654Z,14.20
2022-09-28T11:15:21.677Z,11.90
2022-09-28T11:17:48.510Z,13.90
2022-09-28T11:20:27.461Z,13.60
2022-09-28T11:22:56.476Z,11.90
2022-09-28T11:25:24.970Z,12.00
2022-09-28T11:27:51.597Z,11.90
2022-09-28T11:30:33.863Z,12.70
2022-09-28T11:33:07.038Z,11.90
2022-09-28T11:35:42.532Z,11.90
2022-09-28T11:38:24.548Z,13.80
2022-09-28T11:40:51.284Z,12.00
2022-09-28T11:43:46.931Z,12.10
2022-09-28T11:46:13.509Z,12.10
2022-09-28T11:48:49.343Z,13.80
2022-09-28T11:51:23.030Z,12.20
2022-09-28T11:53:55.514Z,14.60
2022-09-28T11:56:34.824Z,12.20
2022-09-28T11:59:12.625Z,12.20
2022-09-28T12:01:42.292Z,12.20
2022-09-28T12:04:29.263Z,12.20
2022-09-28T12:06:59.086Z,12.20
2022-09-28T12:09:35.905Z,14.40
2022-09-28T12:12:04.187Z,12.40
2022-09-28T12:14:35.716Z,14.50
2022-09-28T12:17:10.749Z,12.40
2022-09-28T12:19:49.251Z,13.70
2022-09-28T12:22:34.744Z,12.30
2022-09-28T12:25:02.714Z,12.40
2022-09-28T12:27:38.012Z,12.50
2022-09-28T12:30:26.858Z,12.40
2022-09-28T12:33:02.663Z,12.30
2022-09-28T12:35:29.394Z,12.30
2022-09-28T12:38:13.426Z,12.30
2022-09-28T12:40:46.628Z,12.30
2022-09-28T12:43:13.244Z,14.20
2022-09-28T12:46:13.420Z,12.40
2022-09-28T12:48:56.675Z,12.30
2022-09-28T12:51:42.883Z,12.20
2022-09-28T12:54:23.121Z,12.20
2022-09-28T12:57:02.176Z,12.20
2022-09-28T12:59:28.833Z,12.20
2022-09-28T13:01:55.430Z,14.50
2022-09-28T13:04:29.671Z,14.00
2022-09-28T13:07:00.921Z,14.50
2022-09-28T13:09:28.911Z,14.60
2022-09-28T13:12:04.085Z,14.00
2022-09-28T13:14:46.024Z,12.00
2022-09-28T13:17:35.623Z,11.90
2022-09-28T13:20:17.780Z,11.90
2022-09-28T13:22:51.357Z,11.80
2022-09-28T13:25:18.969Z,11.80
2022-09-28T13:27:52.065Z,11.80
2022-09-28T13:30:19.451Z,13.70
2022-09-28T13:32:47.012Z,11.80
2022-09-28T13:35:21.341Z,14.00
2022-09-28T13:37:48.748Z,11.70
2022-09-28T13:40:15.583Z,13.50
2022-09-28T13:42:50.835Z,11.70
2022-09-28T13:45:20.439Z,11.80
2022-09-28T13:48:05.920Z,11.90
2022-09-28T13:50:39.176Z,11.90
2022-09-28T13:53:11.814Z,12.00
2022-09-28T13:55:41.598Z,12.00
2022-09-28T13:58:17.663Z,12.10
2022-09-28T14:00:47.975Z,12.10
2022-09-28T14:03:41.779Z,13.30
2022-09-28T14:06:21.197Z,12.10
2022-09-28T14:09:06.419Z,12.20
2022-09-28T14:11:36.712Z,12.30
2022-09-28T14:14:07.322Z,12.30
2022-09-28T14:16:38.169Z,12.30
2022-09-28T14:19:14.158Z,12.30
2022-09-28T14:21:40.709Z,12.20
2022-09-28T14:24:19.695Z,14.70
2022-09-28T14:26:46.611Z,12.20
2022-09-28T14:29:16.352Z,14.60
2022-09-28T14:31:45.990Z,12.20
2022-09-28T14:34:32.386Z,12.30
2022-09-28T14:37:17.835Z,12.20
2022-09-28T14:40:04.216Z,12.40
2022-09-28T14:42:31.153Z,12.20
2022-09-28T14:45:06.646Z,13.70
2022-09-28T14:47:40.406Z,12.30
2022-09-28T14:50:25.757Z,12.30
2022-09-28T14:53:05.663Z,12.20
2022-09-28T14:55:34.730Z,12.20
2022-09-28T14:58:02.544Z,13.00
2022-09-28T15:00:31.715Z,13.50
2022-09-28T15:03:00.186Z,14.20
2022-09-28T15:05:28.377Z,13.60
2022-09-28T15:07:55.104Z,13.20
2022-09-28T15:10:31.356Z,14.10
2022-09-28T15:13:01.161Z,12.10
2022-09-28T15:15:30.863Z,13.40
2022-09-28T15:18:02.170Z,14.20
2022-09-28T15:20:35.264Z,12.00
2022-09-28T15:23:01.882Z,12.00
2022-09-28T15:25:30.073Z,12.70
2022-09-28T15:27:57.873Z,11.90
2022-09-28T15:30:27.635Z,13.60
2022-09-28T15:32:56.812Z,11.90
2022-09-28T15:35:27.318Z,12.60
2022-09-28T15:37:54.958Z,11.90
2022-09-28T15:40:21.582Z,13.50
2022-09-28T15:42:48.378Z,14.20
2022-09-28T15:45:30.786Z,11.80
2022-09-28T15:48:17.353Z,11.70
2022-09-28T15:50:56.994Z,13.00
2022-09-28T15:53:23.641Z,13.10
2022-09-28T15:55:50.278Z,13.70
2022-09-28T15:58:21.509Z,12.40
2022-09-28T16:00:49.487Z,11.60
2022-09-28T16:03:21.845Z,14.00
2022-09-28T16:05:50.235Z,11.50
2022-09-28T16:08:27.381Z,14.00
2022-09-28T16:11:10.977Z,13.30
2022-09-28T16:14:07.406Z,11.50
2022-09-28T16:16:41.147Z,11.40
2022-09-28T16:19:23.511Z,11.40
2022-09-28T16:21:51.536Z,11.30
2022-09-28T16:24:25.965Z,11.30
2022-09-28T16:26:58.712Z,11.10
2022-09-28T16:29:27.189Z,11.10
2022-09-28T16:31:54.013Z,13.10
2022-09-28T16:34:23.743Z,12.90
2022-09-28T16:36:50.532Z,12.40
2022-09-28T16:39:18.069Z,12.60
2022-09-28T16:41:48.474Z,10.90
2022-09-28T16:44:25.922Z,13.00
2022-09-28T16:46:55.173Z,10.80
2022-09-28T16:49:23.653Z,12.30
2022-09-28T16:51:50.224Z,12.60
2022-09-28T16:54:36.635Z,10.70
2022-09-28T16:57:04.160Z,13.10
2022-09-28T16:59:30.936Z,10.50
2022-09-28T17:01:57.919Z,10.50
2022-09-28T17:04:25.354Z,12.10
2022-09-28T17:06:54.224Z,10.30
2022-09-28T17:09:21.909Z,10.20
2022-09-28T17:11:48.828Z,10.20
2022-09-28T17:14:15.469Z,10.10
2022-09-28T17:19:30.819Z,9.90
2022-09-28T17:21:57.382Z,9.80
2022-09-28T17:24:23.988Z,9.80
2022-09-28T17:26:51.700Z,9.80
2022-09-28T17:29:18.976Z,9.70
2022-09-28T17:31:46.634Z,9.70
2022-09-28T17:34:15.248Z,9.60
2022-09-28T17:36:42.885Z,9.50
2022-09-28T17:39:13.814Z,10.50
2022-09-28T17:41:40.901Z,9.50
2022-09-28T17:44:07.785Z,9.40
2022-09-28T17:46:35.742Z,9.30
2022-09-28T17:49:04.234Z,9.40
2022-09-28T17:51:32.422Z,9.30
2022-09-28T17:54:00.932Z,10.70
2022-09-28T17:56:31.874Z,9.30
2022-09-28T17:59:00.258Z,12.00
2022-09-28T18:01:30.090Z,10.70
2022-09-28T18:03:56.766Z,11.80
2022-09-28T18:06:23.731Z,10.90
2022-09-28T18:08:50.392Z,9.10
2022-09-28T18:11:17.445Z,9.90
2022-09-28T18:13:45.959Z,8.10
2022-09-28T18:16:12.955Z,10.50
2022-09-28T18:18:39.936Z,10.90
2022-09-28T18:21:07.037Z,8.80
2022-09-28T18:23:37.855Z,8.80
2022-09-28T18:26:05.110Z,8.80
2022-09-28T18:28:31.794Z,8.80
2022-09-28T18:30:58.554Z,11.10
2022-09-28T18:33:25.124Z,8.80
2022-09-28T18:35:52.876Z,8.70
2022-09-28T18:38:19.786Z,8.70
2022-09-28T18:40:46.800Z,10.40
2022-09-28T18:43:13.860Z,10.30
2022-09-28T18:45:40.476Z,9.60
2022-09-28T18:48:07.187Z,8.70
2022-09-28T18:50:34.785Z,8.70
2022-09-28T18:53:11.770Z,8.60
2022-09-28T18:55:41.358Z,10.40
2022-09-28T18:58:08.727Z,10.90
2022-09-28T19:00:37.570Z,10.40
2022-09-28T19:03:05.258Z,9.90
2022-09-28T19:05:33.794Z,10.70
2022-09-28T19:08:00.662Z,9.30
2022-09-28T19:10:27.626Z,8.60
2022-09-28T19:12:54.622Z,8.70
2022-09-28T19:15:22.618Z,8.60
2022-09-28T19:17:49.933Z,10.70
2022-09-28T19:20:16.918Z,10.80
2022-09-28T19:22:44.231Z,10.70
2022-09-28T19:25:11.545Z,10.60
2022-09-28T19:27:38.109Z,8.40
2022-09-28T19:30:05.081Z,8.40
2022-09-28T19:32:31.767Z,8.40
2022-09-28T19:34:58.594Z,8.40
2022-09-28T19:37:25.285Z,10.30
2022-09-28T19:39:51.974Z,9.90
2022-09-28T19:42:18.509Z,10.10
2022-09-28T19:44:46.428Z,9.70
2022-09-28T19:47:13.093Z,8.10
2022-09-28T19:49:40.442Z,10.60
2022-09-28T19:52:16.105Z,8.00
2022-09-28T19:54:52.148Z,7.90
2022-09-28T19:57:19.619Z,7.90
2022-09-28T19:59:49.558Z,7.90
2022-09-28T20:02:19.237Z,7.90
2022-09-28T20:04:45.969Z,9.20
2022-09-28T20:07:12.645Z,9.70
2022-09-28T20:09:39.367Z,8.10
2022-09-28T20:12:05.999Z,7.90
2022-09-28T20:14:36.572Z,8.80
2022-09-28T20:17:06.187Z,7.90
2022-09-28T20:19:33.561Z,9.10
2022-09-28T20:22:03.194Z,10.30
2022-09-28T20:24:31.206Z,9.10
2022-09-28T20:26:58.198Z,8.00
2022-09-28T20:29:25.189Z,8.20
2022-09-28T20:31:52.087Z,7.90
2022-09-28T20:34:18.831Z,8.70
2022-09-28T20:36:45.431Z,8.20
2022-09-28T20:39:12.475Z,5.80
2022-09-28T20:41:39.240Z,7.80
2022-09-28T20:44:06.807Z,9.30
2022-09-28T20:46:37.360Z,7.80
2022-09-28T20:49:04.692Z,9.30
2022-09-28T20:51:31.429Z,9.60
2022-09-28T20:53:58.807Z,9.40
2022-09-28T20:56:29.160Z,10.10
2022-09-28T20:58:56.891Z,7.70
2022-09-28T21:01:24.586Z,9.00
2022-09-28T21:03:52.519Z,9.20
2022-09-28T21:06:19.877Z,9.60
2022-09-28T21:08:46.831Z,7.70
2022-09-28T21:11:13.862Z,9.10
2022-09-28T21:13:42.795Z,9.50
2022-09-28T21:16:13.785Z,7.60
2022-09-28T21:18:40.486Z,7.50
2022-09-28T21:21:07.988Z,7.50
2022-09-28T21:23:34.807Z,9.10
2022-09-28T21:26:05.903Z,7.50
2022-09-28T21:28:32.817Z,9.30
2022-09-28T21:30:59.662Z,9.10
2022-09-28T21:33:26.675Z,9.00
2022-09-28T21:35:53.651Z,10.00
2022-09-28T21:38:20.386Z,7.40
2022-09-28T21:40:47.226Z,7.40
2022-09-28T21:43:13.914Z,9.80
2022-09-28T21:45:40.511Z,7.30
2022-09-28T21:48:07.091Z,9.50
2022-09-28T21:50:33.717Z,9.30
2022-09-28T21:53:03.178Z,8.90
2022-09-28T21:55:29.812Z,6.70
2022-09-28T21:57:56.460Z,6.60
2022-09-28T22:00:23.506Z,7.80
2022-09-28T22:02:50.879Z,7.80
2022-09-28T22:05:17.558Z,7.40
2022-09-28T22:07:44.628Z,6.20
2022-09-28T22:10:13.160Z,6.10
2022-09-28T22:12:40.091Z,6.20
2022-09-28T22:15:07.029Z,6.30
2022-09-28T22:17:33.636Z,6.40
2022-09-28T22:20:00.350Z,6.50
2022-09-28T22:22:29.206Z,6.60
2022-09-28T22:24:56.256Z,8.30
2022-09-28T22:27:23.962Z,8.90
2022-09-28T22:29:51.166Z,6.80
2022-09-28T22:32:17.955Z,6.90
2022-09-28T22:34:44.651Z,6.80
2022-09-28T22:37:11.226Z,6.80
2022-09-28T22:39:38.092Z,6.70
2022-09-28T22:42:04.843Z,8.80
2022-09-28T22:44:31.543Z,6.40
2022-09-28T22:46:58.281Z,8.50
2022-09-28T22:49:25.090Z,6.40
2022-09-28T22:51:52.100Z,6.30
2022-09-28T22:54:18.811Z,8.10
2022-09-28T22:56:45.527Z,6.40
2022-09-28T22:59:12.152Z,6.30
2022-09-28T23:01:39.036Z,6.30
2022-09-28T23:04:06.280Z,6.30
2022-09-28T23:06:33.293Z,6.30
2022-09-28T23:09:00.605Z,6.40
2022-09-28T23:11:27.721Z,8.70
2022-09-28T23:13:55.697Z,9.00
2022-09-28T23:16:24.923Z,6.50
2022-09-28T23:18:52.422Z,6.50
2022-09-28T23:21:19.996Z,6.60
2022-09-28T23:23:47.142Z,6.60
2022-09-28T23:26:18.378Z,6.60
2022-09-28T23:28:45.362Z,6.60
2022-09-28T23:31:14.104Z,6.60
2022-09-28T23:33:40.782Z,6.70
2022-09-28T23:36:07.814Z,6.50
2022-09-28T23:38:34.679Z,6.50
2022-09-28T23:41:01.585Z,8.60
2022-09-28T23:43:28.406Z,8.00
2022-09-28T23:45:55.097Z,8.70
2022-09-28T23:48:21.768Z,6.60
2022-09-28T23:50:48.641Z,6.70
2022-09-28T23:53:15.288Z,8.80
2022-09-28T23:55:42.709Z,6.70
2022-09-28T23:58:09.828Z,8.40
